Terminal Aerodrome Forecast
Issued by NWS Salt Lake City, UT

Home | Current Version | Previous Version | Text Only | Print | Product List | Glossary On
Versions: 1 2 3 4 5 6 7 8 9 10 11 12 13 14 15 16 17 18
000
FTUS45 KSLC 022144 AAA
TAFCDC
TAF AMD
KCDC 022144Z 0222/0318 07009KT P6SM -TSRA SCT050CB OVC080
     FM022215 07007KT P6SM VCSH SCT050 OVC080
     FM030000 06004KT P6SM SCT060 SCT100
     FM031400 34006KT P6SM FEW100=

USA.gov is the U.S. government's official web portal to all federal, state and local government web resources and services.